Grover Beach, California
Current Conditions -  °F | °C
As of 10:56 AM on Sunday 21 Dec 2014 (Local Time) from KSBP Reporting Station
Clear Clear  
Wind Chill: 19°   Ceiling: Unl
Heat Index: 19°   Visibility: 10mi
Dew Point: 11°   Wind: 14mph
Humidity: 60%   Direction: 340°NNW
Pressure: 30.25"   Gusts: NA
Location:  35.12°N, 120.62°W
Report Text: KSBP 211856Z 34012KT 10SM CLR 19/11 A3025 RMK AO2 SLP241 T01890111
Loading
Personal Weather Stations






























Interactive Weather Map New forecast layout! Learn more

10-Day Weather Forecast

Advertisements
Track Severe Weather on mobile